Time;durP1;ratioP1;P1;durP2;ratioP2;P2;SDS_P1;SDS_P2;PMS_P1;PMS_P2;Temp;Humidity;BMP_temperature;BMP_pressure;BME280_temperature;BME280_humidity;BME280_pressure;Samples;Min_cycle;Max_cycle;Signal;HPM_P1;HPM_P2
2022/09/17 00:00:20;;;;;;;11.70;1.70;;;;;;;;;;5095901;28;20026;-80
2022/09/17 00:02:50;;;;;;;14.95;1.95;;;;;;;;;;5114201;28;20132;-80
2022/09/17 00:05:16;;;;;;;14.00;2.10;;;;;;;;;;5114174;28;20088;-80
2022/09/17 00:07:42;;;;;;;15.77;1.73;;;;;;;;;;5114161;28;20032;-79
2022/09/17 00:10:08;;;;;;;19.50;2.00;;;;;;;;;;5095169;28;20053;-79
2022/09/17 00:12:34;;;;;;;19.25;1.70;;;;;;;;;;5095511;28;20059;-80
2022/09/17 00:15:00;;;;;;;15.68;2.53;;;;;;;;;;5113755;28;20093;-80
2022/09/17 00:17:26;;;;;;;13.15;1.98;;;;;;;;;;5113927;28;20023;-80
2022/09/17 00:19:52;;;;;;;23.50;2.00;;;;;;;;;;5095586;28;20057;-80
2022/09/17 00:22:18;;;;;;;15.65;1.95;;;;;;;;;;5113879;28;20028;-80
2022/09/17 00:24:44;;;;;;;14.30;2.03;;;;;;;;;;5113867;28;20024;-80
2022/09/17 00:27:10;;;;;;;15.32;2.00;;;;;;;;;;5113730;28;20035;-80
2022/09/17 00:29:36;;;;;;;10.35;1.63;;;;;;;;;;5095338;28;20389;-80
2022/09/17 00:32:02;;;;;;;12.35;1.70;;;;;;;;;;5095996;28;20026;-80
2022/09/17 00:34:29;;;;;;;18.05;2.58;;;;;;;;;;5092518;28;20408;-80
2022/09/17 00:36:55;;;;;;;14.38;2.08;;;;;;;;;;5093211;28;20466;-79
2022/09/17 00:39:21;;;;;;;15.60;2.30;;;;;;;;;;5093291;28;20032;-80
2022/09/17 00:41:47;;;;;;;18.45;2.55;;;;;;;;;;5092906;28;20024;-79
2022/09/17 00:44:32;;;;;;;21.60;3.13;;;;;;;;;;5107259;28;20016;-79
2022/09/17 00:46:58;;;;;;;18.17;2.10;;;;;;;;;;5113378;28;20460;-80
2022/09/17 00:49:28;;;;;;;15.68;1.85;;;;;;;;;;5113414;28;20027;-80
2022/09/17 00:52:01;;;;;;;11.73;2.00;;;;;;;;;;5112936;28;20032;-80
2022/09/17 00:54:28;;;;;;;15.63;2.00;;;;;;;;;;5113115;28;20133;-80
2022/09/17 00:56:54;;;;;;;15.73;2.08;;;;;;;;;;5113098;28;20350;-80
2022/09/17 00:59:21;;;;;;;15.18;2.15;;;;;;;;;;5113079;28;20123;-79
2022/09/17 01:01:47;;;;;;;15.32;2.00;;;;;;;;;;5113206;28;20081;-80
2022/09/17 01:04:17;;;;;;;11.68;1.73;;;;;;;;;;5112885;28;20039;-80
2022/09/17 01:07:06;;;;;;;18.35;2.83;;;;;;;;;;5113192;28;20028;-80
2022/09/17 01:09:38;;;;;;;17.20;2.17;;;;;;;;;;5112768;28;20034;-80
2022/09/17 01:12:22;;;;;;;13.55;1.70;;;;;;;;;;5094357;28;20035;-80
2022/09/17 01:14:59;;;;;;;16.73;2.17;;;;;;;;;;5099087;28;20048;-79
2022/09/17 01:17:42;;;;;;;14.77;2.00;;;;;;;;;;5073907;28;20028;-80
2022/09/17 01:20:22;;;;;;;15.57;1.92;;;;;;;;;;5073644;28;20074;-80
2022/09/17 01:23:06;;;;;;;20.83;2.08;;;;;;;;;;5092458;28;20046;-79
2022/09/17 01:25:48;;;;;;;13.50;1.90;;;;;;;;;;5074060;28;20024;-80
2022/09/17 01:28:22;;;;;;;14.45;1.80;;;;;;;;;;5092115;28;20024;-80
2022/09/17 01:30:51;;;;;;;18.45;1.98;;;;;;;;;;5092352;28;20046;-79
2022/09/17 01:33:17;;;;;;;15.82;2.10;;;;;;;;;;5074075;28;20032;-80
2022/09/17 01:35:48;;;;;;;8.35;1.25;;;;;;;;;;5074031;28;20069;-80
2022/09/17 01:38:14;;;;;;;13.18;1.73;;;;;;;;;;5073980;28;20123;-79
2022/09/17 01:40:44;;;;;;;14.98;1.80;;;;;;;;;;5073790;28;20028;-80
2022/09/17 01:43:11;;;;;;;12.88;1.77;;;;;;;;;;5076761;28;20027;-79
2022/09/17 01:45:40;;;;;;;15.60;2.72;;;;;;;;;;5112325;28;20027;-79
2022/09/17 01:48:18;;;;;;;17.67;1.77;;;;;;;;;;5112066;28;20019;-80
2022/09/17 01:51:03;;;;;;;11.40;1.60;;;;;;;;;;5093978;28;20444;-80
2022/09/17 01:53:34;;;;;;;12.88;1.45;;;;;;;;;;5112276;28;20099;-80
2022/09/17 01:56:01;;;;;;;16.17;1.73;;;;;;;;;;5094125;28;20020;-80
2022/09/17 01:58:30;;;;;;;16.05;2.08;;;;;;;;;;5093971;28;20072;-80
2022/09/17 02:01:02;;;;;;;11.18;1.67;;;;;;;;;;5097147;28;20024;-80
2022/09/17 02:03:34;;;;;;;6.97;1.55;;;;;;;;;;5091795;28;20025;-80
2022/09/17 02:06:01;;;;;;;;;;;;;;;;;;5092101;28;20076;-80
2022/09/17 02:08:30;;;;;;;9.77;1.23;;;;;;;;;;5091872;28;20266;-80
2022/09/17 02:10:58;;;;;;;10.52;1.70;;;;;;;;;;5091508;28;20051;-80
2022/09/17 02:13:43;;;;;;;12.60;1.80;;;;;;;;;;5093199;28;20028;-80
2022/09/17 02:16:12;;;;;;;13.20;1.70;;;;;;;;;;5111931;28;20121;-80
2022/09/17 02:18:42;;;;;;;11.27;1.67;;;;;;;;;;5093624;28;20354;-80
2022/09/17 02:21:13;;;;;;;10.60;1.83;;;;;;;;;;5112429;28;20028;-80
2022/09/17 02:23:44;;;;;;;17.17;2.17;;;;;;;;;;5093514;28;20035;-80
2022/09/17 02:26:12;;;;;;;13.23;2.30;;;;;;;;;;5093801;28;20435;-79
2022/09/17 02:28:47;;;;;;;9.75;1.73;;;;;;;;;;5093552;28;20038;-79
2022/09/17 02:31:13;;;;;;;20.58;2.03;;;;;;;;;;5093579;28;20373;-80
2022/09/17 02:33:40;;;;;;;10.15;2.08;;;;;;;;;;5111900;28;20030;-79
2022/09/17 02:36:07;;;;;;;11.27;2.10;;;;;;;;;;5111961;28;20027;-79
2022/09/17 02:38:33;;;;;;;14.43;1.48;;;;;;;;;;5112005;28;20024;-80
2022/09/17 02:41:19;;;;;;;10.10;1.48;;;;;;;;;;5111817;28;20016;-80
2022/09/17 02:43:55;;;;;;;9.93;1.55;;;;;;;;;;5093271;28;20034;-79
2022/09/17 02:46:36;;;;;;;7.47;1.55;;;;;;;;;;5111606;28;20030;-80
2022/09/17 02:49:18;;;;;;;15.10;1.77;;;;;;;;;;5093280;28;20023;-80
2022/09/17 02:52:10;;;;;;;10.80;1.50;;;;;;;;;;5093335;28;20024;-79
2022/09/17 02:54:51;;;;;;;13.65;1.48;;;;;;;;;;5111772;28;20016;-79
2022/09/17 02:57:17;;;;;;;13.02;1.35;;;;;;;;;;5113410;28;20015;-79
2022/09/17 02:59:43;;;;;;;16.17;1.73;;;;;;;;;;5096867;28;20034;-80
2022/09/17 03:02:16;;;;;;;10.77;1.52;;;;;;;;;;5096855;28;20450;-80
2022/09/17 03:04:44;;;;;;;12.23;1.45;;;;;;;;;;5114908;28;20024;-80
2022/09/17 03:07:11;;;;;;;10.23;1.58;;;;;;;;;;5096867;28;20567;-80
2022/09/17 03:09:37;;;;;;;12.68;1.55;;;;;;;;;;5115186;28;20024;-79
2022/09/17 03:12:03;;;;;;;13.77;1.55;;;;;;;;;;5115374;28;20110;-79
2022/09/17 03:14:29;;;;;;;9.23;1.55;;;;;;;;;;5096207;28;20130;-80
2022/09/17 03:16:56;;;;;;;8.63;1.40;;;;;;;;;;5115041;28;20142;-79
2022/09/17 03:19:22;;;;;;;8.98;2.20;;;;;;;;;;5112036;28;20019;-80
2022/09/17 03:21:48;;;;;;;10.80;2.38;;;;;;;;;;5074280;28;20024;-79
2022/09/17 03:24:14;;;;;;;11.02;1.85;;;;;;;;;;5074057;28;20519;-79
2022/09/17 03:26:40;;;;;;;8.38;1.40;;;;;;;;;;5055811;28;20359;-79
2022/09/17 03:29:06;;;;;;;9.70;1.30;;;;;;;;;;5073880;28;20020;-79
2022/09/17 03:31:32;;;;;;;10.00;1.63;;;;;;;;;;5056113;28;20119;-80
2022/09/17 03:33:58;;;;;;;14.05;1.50;;;;;;;;;;5074009;28;20135;-79
2022/09/17 03:36:25;;;;;;;22.17;6.63;;;;;;;;;;5073973;28;20138;-79
2022/09/17 03:38:57;;;;;;;12.18;4.13;;;;;;;;;;5088717;28;20039;-79
2022/09/17 03:41:24;;;;;;;12.68;2.10;;;;;;;;;;5114336;28;20036;-79
2022/09/17 03:43:50;;;;;;;7.40;1.15;;;;;;;;;;5091795;28;20028;-80
2022/09/17 03:46:16;;;;;;;10.95;1.30;;;;;;;;;;5076029;28;20024;-79
2022/09/17 03:48:42;;;;;;;10.52;1.58;;;;;;;;;;5075884;28;20089;-80
2022/09/17 03:51:08;;;;;;;10.88;1.13;;;;;;;;;;5094211;28;20103;-79
2022/09/17 03:53:34;;;;;;;18.27;1.90;;;;;;;;;;5093587;28;20090;-80
2022/09/17 03:56:00;;;;;;;12.43;1.20;;;;;;;;;;5093681;28;20161;-79
2022/09/17 03:58:27;;;;;;;10.57;1.08;;;;;;;;;;5093631;28;20335;-79
2022/09/17 04:00:56;;;;;;;8.77;1.20;;;;;;;;;;5078862;28;20094;-79
2022/09/17 04:03:22;;;;;;;10.70;1.33;;;;;;;;;;5073601;28;20020;-80
2022/09/17 04:05:49;;;;;;;9.88;1.20;;;;;;;;;;5073387;28;20107;-80
2022/09/17 04:08:15;;;;;;;17.30;2.17;;;;;;;;;;5054204;28;20025;-79
2022/09/17 04:10:41;;;;;;;15.40;2.75;;;;;;;;;;5073215;28;20024;-79
2022/09/17 04:13:07;;;;;;;12.25;1.05;;;;;;;;;;5073242;28;20086;-80
2022/09/17 04:15:33;;;;;;;14.02;1.50;;;;;;;;;;5071158;28;20450;-79
2022/09/17 04:17:59;;;;;;;16.13;1.38;;;;;;;;;;5071572;28;20052;-79
2022/09/17 04:20:25;;;;;;;15.13;1.20;;;;;;;;;;5073066;28;20031;-80
2022/09/17 04:22:51;;;;;;;14.48;1.25;;;;;;;;;;5073191;28;20063;-79
2022/09/17 04:25:17;;;;;;;15.85;1.25;;;;;;;;;;5072977;28;20043;-79
2022/09/17 04:27:44;;;;;;;7.95;1.00;;;;;;;;;;5073120;28;20461;-79
2022/09/17 04:30:10;;;;;;;11.43;1.00;;;;;;;;;;5072915;28;20424;-80
2022/09/17 04:32:37;;;;;;;14.13;1.30;;;;;;;;;;5073173;28;20039;-80
2022/09/17 04:35:03;;;;;;;12.13;1.20;;;;;;;;;;5072876;28;20517;-80
2022/09/17 04:37:29;;;;;;;11.77;1.30;;;;;;;;;;5071208;28;20078;-80
2022/09/17 04:39:55;;;;;;;13.77;1.90;;;;;;;;;;5071316;28;20020;-80
2022/09/17 04:42:21;;;;;;;15.50;1.50;;;;;;;;;;5072840;28;20028;-80
2022/09/17 04:44:47;;;;;;;9.10;1.13;;;;;;;;;;5083216;28;20024;-80
2022/09/17 04:47:14;;;;;;;13.65;1.35;;;;;;;;;;5092764;28;20039;-79
2022/09/17 04:49:40;;;;;;;14.60;1.25;;;;;;;;;;5092711;28;20028;-80
2022/09/17 04:52:06;;;;;;;12.80;1.55;;;;;;;;;;5093139;28;20074;-80
2022/09/17 04:54:32;;;;;;;9.80;1.05;;;;;;;;;;5074562;28;20032;-79
2022/09/17 04:56:58;;;;;;;13.20;1.95;;;;;;;;;;5075864;28;20453;-79
2022/09/17 04:59:24;;;;;;;14.38;1.30;;;;;;;;;;5092852;28;20028;-79
2022/09/17 05:01:50;;;;;;;16.60;1.73;;;;;;;;;;5090847;28;20016;-80
2022/09/17 05:04:16;;;;;;;9.68;1.38;;;;;;;;;;5089318;28;20330;-80
2022/09/17 05:06:42;;;;;;;10.52;1.63;;;;;;;;;;5092549;28;20048;-79
2022/09/17 05:09:08;;;;;;;10.20;1.60;;;;;;;;;;5087999;28;20028;-79
2022/09/17 05:11:34;;;;;;;7.20;1.13;;;;;;;;;;5080569;28;20043;-80
2022/09/17 05:14:01;;;;;;;8.25;1.35;;;;;;;;;;5099231;28;20051;-79
2022/09/17 05:16:27;;;;;;;10.93;1.50;;;;;;;;;;5094715;28;20038;-79
2022/09/17 05:18:53;;;;;;;13.98;1.35;;;;;;;;;;5112441;28;20019;-79
2022/09/17 05:21:19;;;;;;;12.18;1.95;;;;;;;;;;5111897;28;20023;-79
2022/09/17 05:23:46;;;;;;;6.60;1.23;;;;;;;;;;5112262;28;20024;-79
2022/09/17 05:26:12;;;;;;;6.85;1.27;;;;;;;;;;5093256;28;20114;-79
2022/09/17 05:28:38;;;;;;;12.55;1.20;;;;;;;;;;5093116;28;20023;-79
2022/09/17 05:31:04;;;;;;;14.85;1.35;;;;;;;;;;5111562;28;20358;-79
2022/09/17 05:33:30;;;;;;;15.55;1.90;;;;;;;;;;5093125;28;20020;-79
2022/09/17 05:35:56;;;;;;;4.43;0.95;;;;;;;;;;5111753;28;20038;-79
2022/09/17 05:38:23;;;;;;;11.18;1.48;;;;;;;;;;5093145;28;20034;-79
2022/09/17 05:40:49;;;;;;;8.48;1.80;;;;;;;;;;5093340;28;20031;-78
2022/09/17 05:43:15;;;;;;;8.75;1.80;;;;;;;;;;5112731;28;20061;-79
2022/09/17 05:45:41;;;;;;;12.05;1.00;;;;;;;;;;5093999;28;20496;-79
2022/09/17 05:48:09;;;;;;;9.73;1.50;;;;;;;;;;5093606;28;20012;-79
2022/09/17 05:50:35;;;;;;;9.07;1.10;;;;;;;;;;5112240;28;20470;-78
2022/09/17 05:53:09;;;;;;;9.13;1.23;;;;;;;;;;5112307;28;20035;-79
2022/09/17 05:55:35;;;;;;;7.30;1.08;;;;;;;;;;5112325;28;20032;-79
2022/09/17 05:58:08;;;;;;;8.40;1.00;;;;;;;;;;5111928;28;20038;-79
2022/09/17 06:00:34;;;;;;;10.43;0.90;;;;;;;;;;5099850;28;20047;-79
2022/09/17 06:03:00;;;;;;;6.82;0.75;;;;;;;;;;5109020;28;20028;-79
2022/09/17 06:05:26;;;;;;;3.15;1.05;;;;;;;;;;5112052;28;20350;-79
2022/09/17 06:07:52;;;;;;;11.93;1.40;;;;;;;;;;5111798;28;20077;-79
2022/09/17 06:10:18;;;;;;;3.17;0.65;;;;;;;;;;5111770;28;20032;-79
2022/09/17 06:12:44;;;;;;;9.70;1.60;;;;;;;;;;5112024;28;20019;-79
2022/09/17 06:15:13;;;;;;;11.55;1.10;;;;;;;;;;5093489;28;20420;-79
2022/09/17 06:17:39;;;;;;;9.65;1.50;;;;;;;;;;5112151;28;20450;-79
2022/09/17 06:20:06;;;;;;;10.10;1.00;;;;;;;;;;5110119;28;20084;-79
2022/09/17 06:22:32;;;;;;;8.30;1.58;;;;;;;;;;5112096;28;20095;-79
2022/09/17 06:24:59;;;;;;;5.20;0.95;;;;;;;;;;5111854;28;20024;-79
2022/09/17 06:27:35;;;;;;;4.93;0.77;;;;;;;;;;5112144;28;20030;-79
2022/09/17 06:30:01;;;;;;;11.20;0.95;;;;;;;;;;5108631;28;20110;-79
2022/09/17 06:32:28;;;;;;;4.68;0.93;;;;;;;;;;5109334;28;20015;-79
2022/09/17 06:34:56;;;;;;;7.00;0.90;;;;;;;;;;5114775;28;20106;-79
2022/09/17 06:37:28;;;;;;;10.70;1.05;;;;;;;;;;5112570;28;20145;-79
2022/09/17 06:39:55;;;;;;;7.07;0.98;;;;;;;;;;5096105;28;20024;-78
2022/09/17 06:42:21;;;;;;;7.97;0.75;;;;;;;;;;5115207;28;20041;-79
2022/09/17 06:44:47;;;;;;;8.27;1.00;;;;;;;;;;5114796;28;20051;-79
2022/09/17 06:47:13;;;;;;;5.25;0.82;;;;;;;;;;5115054;28;20023;-78
2022/09/17 06:49:39;;;;;;;8.60;0.90;;;;;;;;;;5114863;28;20019;-78
2022/09/17 06:52:05;;;;;;;7.43;0.80;;;;;;;;;;5115160;28;20016;-79
2022/09/17 06:54:31;;;;;;;10.65;1.10;;;;;;;;;;5115251;28;20034;-79
2022/09/17 06:56:57;;;;;;;6.22;0.80;;;;;;;;;;5096110;28;20122;-79
2022/09/17 06:59:24;;;;;;;5.63;0.57;;;;;;;;;;5093020;28;20043;-79
2022/09/17 07:01:50;;;;;;;8.65;1.08;;;;;;;;;;5115600;28;20023;-83
2022/09/17 07:04:19;;;;;;;5.05;0.70;;;;;;;;;;5097391;28;20092;-83
2022/09/17 07:06:45;;;;;;;6.28;0.98;;;;;;;;;;5097351;28;20024;-83
2022/09/17 07:09:11;;;;;;;5.93;0.95;;;;;;;;;;5115804;28;20020;-83
2022/09/17 07:11:38;;;;;;;8.70;0.90;;;;;;;;;;5097268;28;20055;-83
2022/09/17 07:14:05;;;;;;;9.75;0.85;;;;;;;;;;5115558;28;20043;-83
2022/09/17 07:16:34;;;;;;;9.75;1.00;;;;;;;;;;5115571;28;20023;-83
2022/09/17 07:19:01;;;;;;;9.07;0.75;;;;;;;;;;5115574;28;20071;-83
2022/09/17 07:21:28;;;;;;;10.65;1.08;;;;;;;;;;5115356;28;20073;-83
2022/09/17 07:23:54;;;;;;;4.10;0.90;;;;;;;;;;5115439;28;20031;-83
2022/09/17 07:26:20;;;;;;;6.28;1.05;;;;;;;;;;5115444;28;20023;-81
2022/09/17 07:28:47;;;;;;;7.97;0.75;;;;;;;;;;5115294;28;20038;-83
2022/09/17 07:31:13;;;;;;;10.27;1.10;;;;;;;;;;5115927;28;20038;-82
2022/09/17 07:33:40;;;;;;;6.93;0.77;;;;;;;;;;5097445;28;20065;-85
2022/09/17 07:36:07;;;;;;;9.38;1.00;;;;;;;;;;5115295;28;20034;-86
2022/09/17 07:38:34;;;;;;;4.78;0.70;;;;;;;;;;5096837;28;20047;-84
2022/09/17 07:41:04;;;;;;;4.82;0.82;;;;;;;;;;5115082;28;20120;-84
2022/09/17 07:43:31;;;;;;;9.00;0.70;;;;;;;;;;5114804;28;20034;-84
2022/09/17 07:45:58;;;;;;;6.13;1.13;;;;;;;;;;5114879;28;20098;-84
2022/09/17 07:48:24;;;;;;;8.77;1.15;;;;;;;;;;5096484;28;20573;-83
2022/09/17 07:50:50;;;;;;;10.27;1.48;;;;;;;;;;5114908;28;20028;-84
2022/09/17 07:53:17;;;;;;;9.93;1.17;;;;;;;;;;5096144;28;20114;-84
2022/09/17 07:55:50;;;;;;;11.15;1.27;;;;;;;;;;5096453;28;20023;-83
2022/09/17 07:58:16;;;;;;;6.30;1.00;;;;;;;;;;5096155;28;20119;-82
2022/09/17 08:00:42;;;;;;;5.55;1.00;;;;;;;;;;5096149;28;20140;-82
2022/09/17 08:03:08;;;;;;;7.30;0.80;;;;;;;;;;5095828;28;20015;-78
2022/09/17 08:05:34;;;;;;;5.05;1.13;;;;;;;;;;5114098;28;20024;-80
2022/09/17 08:08:01;;;;;;;7.20;1.20;;;;;;;;;;5096184;28;20069;-79
2022/09/17 08:10:27;;;;;;;7.30;0.80;;;;;;;;;;5114478;28;20465;-80
2022/09/17 08:12:57;;;;;;;13.13;1.08;;;;;;;;;;5114861;28;20402;-80
2022/09/17 08:15:24;;;;;;;5.45;0.93;;;;;;;;;;5114228;28;20147;-79
2022/09/17 08:17:50;;;;;;;8.60;1.10;;;;;;;;;;5114120;28;20035;-80
2022/09/17 08:20:17;;;;;;;7.57;1.42;;;;;;;;;;5095632;28;20077;-81
2022/09/17 08:22:44;;;;;;;3.53;0.60;;;;;;;;;;5114322;28;20024;-79
2022/09/17 08:25:10;;;;;;;6.57;0.70;;;;;;;;;;5114061;28;20118;-80
2022/09/17 08:27:40;;;;;;;6.82;0.70;;;;;;;;;;5113931;28;20107;-79
2022/09/17 08:30:07;;;;;;;5.65;0.68;;;;;;;;;;5113615;28;20068;-82
2022/09/17 08:32:33;;;;;;;9.68;0.95;;;;;;;;;;5114092;28;20172;-84
2022/09/17 08:34:59;;;;;;;3.08;0.63;;;;;;;;;;5095492;28;20458;-85
2022/09/17 08:37:26;;;;;;;3.90;0.60;;;;;;;;;;5095443;28;20024;-84
2022/09/17 08:39:52;;;;;;;4.72;0.60;;;;;;;;;;5113783;28;20027;-84
2022/09/17 08:42:26;;;;;;;2.50;0.40;;;;;;;;;;5113882;28;20034;-83
2022/09/17 08:44:54;;;;;;;2.40;0.38;;;;;;;;;;5113757;28;20068;-82
2022/09/17 08:47:20;;;;;;;5.72;0.60;;;;;;;;;;5113522;28;20031;-85
2022/09/17 08:49:52;;;;;;;4.03;0.50;;;;;;;;;;5113491;28;20770;-85
2022/09/17 08:52:18;;;;;;;4.22;0.43;;;;;;;;;;5095237;28;20130;-86
2022/09/17 08:55:03;;;;;;;5.22;0.55;;;;;;;;;;5112947;27;20024;-86
2022/09/17 08:57:56;;;;;;;5.88;0.40;;;;;;;;;;5113410;28;20109;-84
2022/09/17 09:00:23;;;;;;;2.50;0.50;;;;;;;;;;5108863;28;20039;-81
2022/09/17 09:02:49;;;;;;;5.22;0.63;;;;;;;;;;5113519;28;20050;-83
2022/09/17 09:05:15;;;;;;;4.30;0.52;;;;;;;;;;5113542;28;20055;-82
2022/09/17 09:07:47;;;;;;;1.73;0.30;;;;;;;;;;5113229;28;20028;-82
2022/09/17 09:10:16;;;;;;;3.42;0.35;;;;;;;;;;5112860;28;20042;-81
2022/09/17 09:12:43;;;;;;;3.15;0.55;;;;;;;;;;5112677;28;20089;-79
2022/09/17 09:15:23;;;;;;;8.45;1.23;;;;;;;;;;5112996;28;20046;-81
2022/09/17 09:17:50;;;;;;;2.45;0.35;;;;;;;;;;5094813;28;20381;-82
2022/09/17 09:20:17;;;;;;;6.18;0.75;;;;;;;;;;5108606;28;20027;-79
2022/09/17 09:22:48;;;;;;;4.90;0.60;;;;;;;;;;5113271;28;20063;-80
2022/09/17 09:25:17;;;;;;;5.95;0.40;;;;;;;;;;5113029;28;20035;-86
2022/09/17 09:27:48;;;;;;;5.00;1.02;;;;;;;;;;5094580;28;20023;-85
2022/09/17 09:30:15;;;;;;;2.70;0.47;;;;;;;;;;5112178;28;20050;-89
2022/09/17 09:32:47;;;;;;;8.18;0.80;;;;;;;;;;5113068;28;20411;-87
2022/09/17 09:35:21;;;;;;;3.53;0.32;;;;;;;;;;5112883;28;20103;-88
2022/09/17 09:37:59;;;;;;;6.63;0.82;;;;;;;;;;5112856;28;20076;-88
2022/09/17 09:40:36;;;;;;;8.88;1.55;;;;;;;;;;5113082;28;20434;-89
2022/09/17 09:43:04;;;;;;;5.05;0.85;;;;;;;;;;5102917;28;20099;-90
2022/09/17 09:45:43;;;;;;;7.60;0.95;;;;;;;;;;5074085;28;20078;-92
2022/09/17 09:48:35;;;;;;;6.13;0.70;;;;;;;;;;5108773;28;20098;-91
2022/09/17 09:51:04;;;;;;;6.22;0.73;;;;;;;;;;5113118;28;20051;-91
2022/09/17 09:53:40;;;;;;;6.63;0.70;;;;;;;;;;5113062;28;20020;-90
2022/09/17 09:56:15;;;;;;;8.80;0.90;;;;;;;;;;5112959;28;20362;-88
2022/09/17 09:58:42;;;;;;;4.80;0.38;;;;;;;;;;5094555;28;20418;-89
2022/09/17 10:01:13;;;;;;;9.77;0.60;;;;;;;;;;5086271;28;20036;-88
2022/09/17 10:03:41;;;;;;;4.00;0.60;;;;;;;;;;5094921;28;20046;-88
2022/09/17 10:06:10;;;;;;;4.30;0.68;;;;;;;;;;5096734;28;20053;-89
2022/09/17 10:08:38;;;;;;;8.07;0.70;;;;;;;;;;5098950;28;20111;-90
2022/09/17 10:11:05;;;;;;;8.13;0.90;;;;;;;;;;5098347;28;20020;-89
2022/09/17 10:13:34;;;;;;;5.55;0.50;;;;;;;;;;5097821;28;20476;-89
2022/09/17 10:16:20;;;;;;;6.57;0.70;;;;;;;;;;5116748;28;20019;-88
2022/09/17 10:18:47;;;;;;;9.68;1.38;;;;;;;;;;5116437;28;20099;-89
2022/09/17 10:21:19;;;;;;;5.03;0.43;;;;;;;;;;5098058;28;20020;-89
2022/09/17 10:23:45;;;;;;;2.90;0.60;;;;;;;;;;5098087;28;20027;-89
2022/09/17 10:26:22;;;;;;;5.95;0.60;;;;;;;;;;5116388;28;20020;-90
2022/09/17 10:28:50;;;;;;;3.08;0.50;;;;;;;;;;5116234;28;20089;-89
2022/09/17 10:31:17;;;;;;;3.40;0.52;;;;;;;;;;5097702;28;20745;-89
2022/09/17 10:33:55;;;;;;;5.38;0.73;;;;;;;;;;5116311;28;20179;-88
2022/09/17 10:36:40;;;;;;;4.70;0.65;;;;;;;;;;5097691;28;20083;-88
2022/09/17 10:39:24;;;;;;;10.10;0.90;;;;;;;;;;5116102;28;20024;-89
2022/09/17 10:41:57;;;;;;;7.03;0.80;;;;;;;;;;5097710;28;20063;-89
2022/09/17 10:44:25;;;;;;;5.57;0.90;;;;;;;;;;5116130;28;20508;-89
2022/09/17 10:46:51;;;;;;;5.65;0.65;;;;;;;;;;5116167;28;20028;-85
2022/09/17 10:49:26;;;;;;;4.90;0.80;;;;;;;;;;5116123;28;20023;-87
2022/09/17 10:52:03;;;;;;;5.63;0.70;;;;;;;;;;5098200;28;20027;-89
2022/09/17 10:54:39;;;;;;;4.53;0.60;;;;;;;;;;5116157;28;20330;-87
2022/09/17 10:57:06;;;;;;;6.65;0.80;;;;;;;;;;5116131;28;20019;-87
2022/09/17 10:59:40;;;;;;;3.90;0.70;;;;;;;;;;5115526;28;20028;-87
2022/09/17 11:02:31;;;;;;;3.85;0.60;;;;;;;;;;5115420;28;20487;-87
2022/09/17 11:05:05;;;;;;;4.25;0.60;;;;;;;;;;5115404;28;20107;-87
2022/09/17 11:07:34;;;;;;;9.65;0.73;;;;;;;;;;5115162;28;20144;-87
2022/09/17 11:10:06;;;;;;;6.35;0.75;;;;;;;;;;5097047;28;20050;-87
2022/09/17 11:12:53;;;;;;;7.30;0.90;;;;;;;;;;5115364;28;20069;-87
2022/09/17 11:15:37;;;;;;;7.93;0.68;;;;;;;;;;5114981;28;20566;-87
2022/09/17 11:18:15;;;;;;;3.47;0.50;;;;;;;;;;5114761;28;20023;-87
2022/09/17 11:20:56;;;;;;;3.72;0.60;;;;;;;;;;5096776;28;20023;-87
2022/09/17 11:23:41;;;;;;;5.77;0.50;;;;;;;;;;5115366;28;20103;-87
2022/09/17 11:26:20;;;;;;;8.68;1.10;;;;;;;;;;5096886;28;20039;-86
2022/09/17 11:28:46;;;;;;;7.47;0.85;;;;;;;;;;5115248;28;20076;-87
2022/09/17 11:31:12;;;;;;;13.80;1.23;;;;;;;;;;5096924;28;20037;-87
2022/09/17 11:33:50;;;;;;;9.05;1.17;;;;;;;;;;5096742;28;20034;-86
2022/09/17 11:36:22;;;;;;;7.50;1.00;;;;;;;;;;5096492;28;20069;-87
2022/09/17 11:38:49;;;;;;;8.35;1.13;;;;;;;;;;5115236;28;20110;-87
2022/09/17 11:41:18;;;;;;;9.57;1.00;;;;;;;;;;5115073;28;20072;-87
2022/09/17 11:44:03;;;;;;;8.00;0.93;;;;;;;;;;5114772;28;20354;-87
2022/09/17 11:46:42;;;;;;;10.98;1.10;;;;;;;;;;5114844;28;20020;-86
2022/09/17 11:49:23;;;;;;;8.82;1.38;;;;;;;;;;5114979;28;20089;-86
2022/09/17 11:51:52;;;;;;;14.52;1.30;;;;;;;;;;5115115;28;20077;-85
2022/09/17 11:54:21;;;;;;;7.57;1.20;;;;;;;;;;5096286;28;20027;-86
2022/09/17 11:56:50;;;;;;;9.10;1.10;;;;;;;;;;5114661;28;20015;-84
2022/09/17 11:59:35;;;;;;;11.35;1.23;;;;;;;;;;5114405;28;20065;-85
2022/09/17 12:02:05;;;;;;;7.53;1.30;;;;;;;;;;5095908;28;20046;-86
2022/09/17 12:04:41;;;;;;;9.38;1.15;;;;;;;;;;5114455;28;20020;-86
2022/09/17 12:07:17;;;;;;;3.90;0.70;;;;;;;;;;5096026;28;20024;-86
2022/09/17 12:09:45;;;;;;;2.42;0.50;;;;;;;;;;5095797;28;20382;-87
2022/09/17 12:12:16;;;;;;;5.97;1.05;;;;;;;;;;5114045;28;20043;-86
2022/09/17 12:14:55;;;;;;;6.30;1.05;;;;;;;;;;5095488;28;20040;-86
2022/09/17 12:17:26;;;;;;;3.20;1.02;;;;;;;;;;5095694;28;20030;-85
2022/09/17 12:20:07;;;;;;;8.00;1.00;;;;;;;;;;5114581;28;20027;-86
2022/09/17 12:22:37;;;;;;;7.32;1.45;;;;;;;;;;5112594;27;20135;-87
2022/09/17 12:25:05;;;;;;;11.23;1.33;;;;;;;;;;5095597;28;20032;-87
2022/09/17 12:27:52;;;;;;;7.40;1.00;;;;;;;;;;5114221;28;20861;-87
2022/09/17 12:30:25;;;;;;;7.15;1.00;;;;;;;;;;5110222;28;20020;-88
2022/09/17 12:33:14;;;;;;;3.75;0.50;;;;;;;;;;5094136;28;20024;-86
2022/09/17 12:35:40;;;;;;;3.63;0.60;;;;;;;;;;5093441;28;20034;-88
2022/09/17 12:38:06;;;;;;;6.72;0.65;;;;;;;;;;5111722;28;20839;-87
2022/09/17 12:40:35;;;;;;;6.65;0.63;;;;;;;;;;5095700;28;20126;-87
2022/09/17 12:43:09;;;;;;;3.80;0.80;;;;;;;;;;5094621;28;20118;-83
2022/09/17 12:45:46;;;;;;;4.97;1.05;;;;;;;;;;5114122;28;20028;-85
2022/09/17 12:48:25;;;;;;;6.22;1.00;;;;;;;;;;5114367;28;20030;-85
2022/09/17 12:51:10;;;;;;;5.40;0.63;;;;;;;;;;5113852;28;20098;-91
2022/09/17 12:53:46;;;;;;;10.68;0.82;;;;;;;;;;5113945;28;20114;-85
2022/09/17 12:56:27;;;;;;;10.38;0.70;;;;;;;;;;5095135;28;20023;-89
2022/09/17 12:59:10;;;;;;;4.95;0.70;;;;;;;;;;5113378;28;20580;-88
2022/09/17 13:01:50;;;;;;;5.93;0.68;;;;;;;;;;5095034;28;20099;-89
2022/09/17 13:04:21;;;;;;;6.78;0.88;;;;;;;;;;5113447;28;20028;-88
2022/09/17 13:07:06;;;;;;;9.18;1.00;;;;;;;;;;5113532;28;20019;-88
2022/09/17 13:09:51;;;;;;;7.15;0.88;;;;;;;;;;5094596;28;20020;-89
2022/09/17 13:12:52;;;;;;;5.05;0.90;;;;;;;;;;5094985;28;20027;-88
2022/09/17 13:15:21;;;;;;;5.25;0.90;;;;;;;;;;5008832;28;20041;-87
2022/09/17 13:17:47;;;;;;;6.22;1.27;;;;;;;;;;5081418;28;20040;-88
2022/09/17 13:20:14;;;;;;;6.78;0.85;;;;;;;;;;5074570;28;20028;-88
2022/09/17 13:22:48;;;;;;;6.25;1.00;;;;;;;;;;5092615;28;20107;-88
2022/09/17 13:25:15;;;;;;;9.90;1.40;;;;;;;;;;5091291;28;20386;-89
2022/09/17 13:27:42;;;;;;;6.18;1.48;;;;;;;;;;5091367;28;20062;-88
2022/09/17 13:30:09;;;;;;;7.13;1.48;;;;;;;;;;5091262;28;20024;-89
2022/09/17 13:32:36;;;;;;;7.13;1.08;;;;;;;;;;5091352;28;20332;-89
2022/09/17 13:35:11;;;;;;;5.10;1.10;;;;;;;;;;5091400;28;20109;-89
2022/09/17 13:37:37;;;;;;;6.28;1.02;;;;;;;;;;5111902;28;20141;-89
2022/09/17 13:40:05;;;;;;;8.52;1.02;;;;;;;;;;5112486;28;20031;-88
2022/09/17 13:42:42;;;;;;;10.10;1.25;;;;;;;;;;5087609;28;20036;-89
2022/09/17 13:45:15;;;;;;;6.32;1.10;;;;;;;;;;5070882;28;20025;-89
2022/09/17 13:48:01;;;;;;;7.78;0.93;;;;;;;;;;5072106;28;20078;-84
2022/09/17 13:50:37;;;;;;;30.50;4.38;;;;;;;;;;5054290;28;20047;-85
2022/09/17 13:53:08;;;;;;;14.75;2.03;;;;;;;;;;5086820;28;20032;-83
2022/09/17 13:55:41;;;;;;;9.82;2.03;;;;;;;;;;5091891;28;20062;-85
2022/09/17 13:58:19;;;;;;;11.32;1.00;;;;;;;;;;5092145;28;20031;-83
2022/09/17 14:00:46;;;;;;;7.95;1.45;;;;;;;;;;5060754;28;20063;-83
2022/09/17 14:03:32;;;;;;;7.75;0.98;;;;;;;;;;5077250;28;20016;-83
2022/09/17 14:05:58;;;;;;;5.15;1.02;;;;;;;;;;5070694;28;20029;-83
2022/09/17 14:08:28;;;;;;;5.82;1.23;;;;;;;;;;5053953;28;20047;-84
2022/09/17 14:10:54;;;;;;;3.53;1.30;;;;;;;;;;5071710;28;20166;-84
2022/09/17 14:13:38;;;;;;;5.60;1.50;;;;;;;;;;5072728;28;20078;-83
2022/09/17 14:16:22;;;;;;;6.28;1.20;;;;;;;;;;5091110;28;20126;-83
2022/09/17 14:18:57;;;;;;;8.75;1.17;;;;;;;;;;5091972;28;20059;-83
2022/09/17 14:21:27;;;;;;;8.55;1.77;;;;;;;;;;5091949;28;20028;-84
2022/09/17 14:23:57;;;;;;;7.15;1.10;;;;;;;;;;5092163;28;20070;-84
2022/09/17 14:26:31;;;;;;;6.65;0.80;;;;;;;;;;5078122;28;20200;-85
2022/09/17 14:29:06;;;;;;;3.38;0.93;;;;;;;;;;5069735;28;20032;-85
2022/09/17 14:31:35;;;;;;;7.88;1.20;;;;;;;;;;5066639;28;20021;-84
2022/09/17 14:34:05;;;;;;;7.45;1.05;;;;;;;;;;5089909;28;20020;-84
2022/09/17 14:36:38;;;;;;;4.07;0.70;;;;;;;;;;5070627;28;20161;-84
2022/09/17 14:39:09;;;;;;;4.82;0.65;;;;;;;;;;5063121;28;20028;-82
2022/09/17 14:41:43;;;;;;;2.88;0.60;;;;;;;;;;5072900;28;20029;-83
2022/09/17 14:44:31;;;;;;;7.80;0.80;;;;;;;;;;5073887;28;20026;-84
2022/09/17 14:47:03;;;;;;;7.28;0.70;;;;;;;;;;5073803;28;20028;-83
2022/09/17 14:49:41;;;;;;;5.82;0.98;;;;;;;;;;5070176;28;20123;-83
2022/09/17 14:52:26;;;;;;;4.55;0.80;;;;;;;;;;5089997;28;20012;-82
2022/09/17 14:55:13;;;;;;;6.40;0.95;;;;;;;;;;5057674;28;20032;-83
2022/09/17 14:57:45;;;;;;;5.28;0.95;;;;;;;;;;5076569;28;20031;-83